Time;durP1;ratioP1;P1;durP2;ratioP2;P2;SDS_P1;SDS_P2;PMS_P1;PMS_P2;Temp;Humidity;BMP_temperature;BMP_pressure;BME280_temperature;BME280_humidity;BME280_pressure;Samples;Min_cycle;Max_cycle;Signal;HPM_P1;HPM_P2
2021/08/09 00:00:55;;;;;;;7.20;6.47;;;;;23.20;100345.00;;;;2070801;28;20884;-57
2021/08/09 00:01:55;;;;;;;7.20;6.47;;;;;23.20;100352.00;;;;2063334;28;20241;-56
2021/08/09 00:02:55;;;;;;;8.40;6.60;;;;;23.20;100346.00;;;;2063108;28;20231;-56
2021/08/09 00:03:56;;;;;;;8.30;6.63;;;;;23.20;100345.00;;;;2062714;28;20290;-56
2021/08/09 00:04:56;;;;;;;6.63;5.60;;;;;23.20;100344.00;;;;2064528;28;20294;-57
2021/08/09 00:05:56;;;;;;;8.10;6.63;;;;;23.20;100339.00;;;;2071196;28;20229;-56
2021/08/09 00:06:57;;;;;;;7.43;5.87;;;;;23.20;100336.00;;;;2070880;28;20222;-55
2021/08/09 00:07:57;;;;;;;6.23;5.63;;;;;23.20;100341.00;;;;2067462;28;20305;-55
2021/08/09 00:08:59;;;;;;;6.00;5.43;;;;;23.20;100339.00;;;;2062313;28;20233;-57
2021/08/09 00:09:59;;;;;;;6.70;6.03;;;;;23.20;100337.00;;;;2066504;28;20225;-57
2021/08/09 00:11:00;;;;;;;6.40;5.70;;;;;23.20;100344.00;;;;2070341;28;20218;-55
2021/08/09 00:12:01;;;;;;;7.90;6.17;;;;;23.20;100345.00;;;;2070282;28;20221;-55
2021/08/09 00:13:01;;;;;;;6.40;5.75;;;;;23.20;100335.00;;;;2064885;28;21317;-56
2021/08/09 00:14:02;;;;;;;6.10;5.20;;;;;23.20;100337.00;;;;2064706;28;20223;-56
2021/08/09 00:15:02;;;;;;;6.30;5.70;;;;;23.20;100341.00;;;;2064495;28;20304;-56
2021/08/09 00:16:03;;;;;;;6.70;5.50;;;;;23.20;100337.00;;;;2063682;28;20222;-56
2021/08/09 00:17:03;;;;;;;5.73;5.13;;;;;23.20;100339.00;;;;2062835;28;20261;-56
2021/08/09 00:18:04;;;;;;;5.73;5.20;;;;;23.20;100340.00;;;;2062860;28;20285;-56
2021/08/09 00:19:04;;;;;;;6.00;5.40;;;;;23.20;100335.00;;;;2064800;28;20223;-56
2021/08/09 00:20:05;;;;;;;6.30;5.70;;;;;23.20;100344.00;;;;2070807;28;20229;-57
2021/08/09 00:21:05;;;;;;;5.63;5.00;;;;;23.20;100334.00;;;;2070724;28;20233;-55
2021/08/09 00:22:06;;;;;;;6.40;5.80;;;;;23.20;100331.00;;;;2071127;28;20457;-55
2021/08/09 00:23:06;;;;;;;4.90;4.50;;;;;23.30;100344.00;;;;2070751;28;20734;-56
2021/08/09 00:24:06;;;;;;;5.77;5.20;;;;;23.20;100333.00;;;;2070792;28;20257;-58
2021/08/09 00:25:07;;;;;;;5.90;5.00;;;;;23.20;100349.00;;;;2070961;28;20230;-58
2021/08/09 00:26:08;;;;;;;5.67;5.10;;;;;23.20;100340.00;;;;2071055;28;20296;-58
2021/08/09 00:27:08;;;;;;;6.33;4.73;;;;;23.20;100346.00;;;;2070972;28;20449;-58
2021/08/09 00:28:08;;;;;;;5.47;4.80;;;;;23.20;100341.00;;;;2070707;28;20246;-56
2021/08/09 00:29:09;;;;;;;5.50;4.90;;;;;23.20;100335.00;;;;2071112;28;20264;-55
2021/08/09 00:30:10;;;;;;;5.32;4.53;;;;;23.20;100351.00;;;;2070888;28;20214;-56
2021/08/09 00:31:11;;;;;;;5.40;4.90;;;;;23.20;100336.00;;;;2070689;28;20214;-57
2021/08/09 00:32:11;;;;;;;4.57;4.10;;;;;23.20;100342.00;;;;2070995;28;20461;-56
2021/08/09 00:33:11;;;;;;;5.77;4.53;;;;;23.20;100342.00;;;;2069733;28;20288;-56
2021/08/09 00:34:12;;;;;;;5.53;4.67;;;;;23.20;100339.00;;;;2071000;28;20313;-56
2021/08/09 00:35:12;;;;;;;5.33;4.83;;;;;23.20;100353.00;;;;2070977;28;20210;-56
2021/08/09 00:36:13;;;;;;;5.73;4.80;;;;;23.20;100349.00;;;;2071019;28;20222;-56
2021/08/09 00:37:13;;;;;;;5.23;4.63;;;;;23.20;100344.00;;;;2071044;28;20218;-56
2021/08/09 00:38:13;;;;;;;4.80;4.30;;;;;23.20;100342.00;;;;2070698;28;20224;-55
2021/08/09 00:39:14;;;;;;;5.33;4.13;;;;;23.20;100341.00;;;;2070900;28;20214;-57
2021/08/09 00:40:14;;;;;;;7.40;3.90;;;;;23.20;100341.00;;;;2070592;28;20218;-56
2021/08/09 00:41:14;;;;;;;4.60;3.93;;;;;23.20;100342.00;;;;2071036;28;20264;-55
2021/08/09 00:42:15;;;;;;;5.00;4.30;;;;;23.20;100345.00;;;;2070859;28;20697;-56
2021/08/09 00:43:15;;;;;;;5.23;4.13;;;;;23.20;100346.00;;;;2070888;28;20217;-54
2021/08/09 00:44:16;;;;;;;5.03;4.20;;;;;23.20;100348.00;;;;2065391;28;20223;-57
2021/08/09 00:45:17;;;;;;;4.77;4.07;;;;;23.20;100345.00;;;;2064666;28;20652;-55
2021/08/09 00:46:18;;;;;;;5.15;4.15;;;;;23.20;100350.00;;;;2064255;28;20218;-56
2021/08/09 00:47:18;;;;;;;4.57;4.07;;;;;23.20;100354.00;;;;2062927;28;20739;-55
2021/08/09 00:48:18;;;;;;;4.97;4.03;;;;;23.20;100353.00;;;;2062985;28;20367;-55
2021/08/09 00:49:19;;;;;;;4.47;4.07;;;;;23.20;100347.00;;;;2062729;28;20214;-57
2021/08/09 00:50:19;;;;;;;4.10;3.67;;;;;23.20;100363.00;;;;2062383;28;20633;-56
2021/08/09 00:51:19;;;;;;;4.73;4.33;;;;;23.20;100350.00;;;;2062818;28;20235;-56
2021/08/09 00:52:22;;;;;;;3.83;3.43;;;;;23.20;100349.00;;;;2062893;28;20219;-56
2021/08/09 00:53:23;;;;;;;4.95;3.80;;;;;23.20;100351.00;;;;2062201;28;20210;-55
2021/08/09 00:54:23;;;;;;;7.70;3.80;;;;;23.20;100353.00;;;;2064402;28;20259;-55
2021/08/09 00:55:24;;;;;;;4.93;4.00;;;;;23.20;100350.00;;;;2061686;28;20238;-56
2021/08/09 00:56:24;;;;;;;4.50;3.50;;;;;23.20;100354.00;;;;2062136;28;20211;-56
2021/08/09 00:57:24;;;;;;;5.03;3.80;;;;;23.20;100357.00;;;;2070261;28;20206;-56
2021/08/09 00:58:25;;;;;;;4.23;3.53;;;;;23.20;100352.00;;;;2066507;28;20214;-56
2021/08/09 00:59:25;;;;;;;4.13;3.60;;;;;23.20;100362.00;;;;2069854;28;20225;-55
2021/08/09 01:00:26;;;;;;;4.10;3.70;;;;;23.20;100352.00;;;;2069541;28;20631;-56
2021/08/09 01:01:26;;;;;;;4.43;3.47;;;;;23.20;100364.00;;;;2070288;28;20296;-56
2021/08/09 01:02:27;;;;;;;4.97;3.70;;;;;23.20;100365.00;;;;2070898;28;20293;-56
2021/08/09 01:03:27;;;;;;;3.87;3.40;;;;;23.20;100368.00;;;;2071079;28;20202;-55
2021/08/09 01:04:27;;;;;;;3.70;3.30;;;;;23.20;100364.00;;;;2071029;28;20256;-55
2021/08/09 01:05:28;;;;;;;5.70;3.60;;;;;23.10;100364.00;;;;2070479;28;20206;-56
2021/08/09 01:06:28;;;;;;;3.80;3.50;;;;;23.20;100371.00;;;;2070792;28;20214;-56
2021/08/09 01:07:32;;;;;;;4.10;3.37;;;;;23.20;100365.00;;;;2070842;28;20206;-56
2021/08/09 01:08:58;;;;;;;5.05;3.92;;;;;23.20;100366.00;;;;2070181;28;20203;-56
2021/08/09 01:10:13;;;;;;;3.88;3.22;;;;;23.20;100371.00;;;;2064972;28;20709;-56
2021/08/09 01:11:24;;;;;;;5.32;3.15;;;;;23.20;100372.00;;;;2060436;28;20224;-56
2021/08/09 01:12:41;;;;;;;3.88;3.42;;;;;23.20;100377.00;;;;2047895;28;20216;-56
2021/08/09 01:13:46;;;;;;;4.10;3.40;;;;;23.20;100378.00;;;;2060185;28;20222;-56
2021/08/09 01:15:14;;;;;;;4.70;3.60;;;;;23.20;100376.00;;;;2067475;28;20242;-54
2021/08/09 01:16:14;;;;;;;3.92;3.15;;;;;23.20;100375.00;;;;2067013;28;20754;-57
2021/08/09 01:17:15;;;;;;;4.53;3.10;;;;;23.10;100376.00;;;;2063261;28;20238;-58
2021/08/09 01:18:15;;;;;;;7.33;3.00;;;;;23.10;100383.00;;;;2063404;28;20217;-57
2021/08/09 01:19:48;;;;;;;3.50;3.03;;;;;23.10;100378.00;;;;2063565;28;20676;-55
2021/08/09 01:20:59;;;;;;;4.28;2.65;;;;;23.10;100376.00;;;;2063655;28;20342;-58
2021/08/09 01:22:06;;;;;;;3.25;2.25;;;;;23.10;100383.00;;;;2066321;28;20253;-57
2021/08/09 01:23:15;;;;;;;2.97;2.35;;;;;23.20;100383.00;;;;2067771;28;20582;-57
2021/08/09 01:24:33;;;;;;;4.47;2.40;;;;;23.10;100374.00;;;;2066833;28;20249;-60
2021/08/09 01:25:38;;;;;;;5.03;2.55;;;;;23.20;100376.00;;;;2069208;28;20717;-56
2021/08/09 01:27:11;;;;;;;3.63;2.58;;;;;23.20;100374.00;;;;2063480;28;20325;-56
2021/08/09 01:28:11;;;;;;;2.67;2.30;;;;;23.20;100381.00;;;;2067208;28;20222;-56
2021/08/09 01:29:17;;;;;;;2.37;2.07;;;;;23.20;100370.00;;;;2075215;28;20328;-56
2021/08/09 01:30:19;;;;;;;2.67;2.45;;;;;23.20;100380.00;;;;2064851;28;20226;-58
2021/08/09 01:31:19;;;;;;;4.50;2.67;;;;;23.20;100383.00;;;;2066886;28;20313;-56
2021/08/09 01:32:19;;;;;;;2.97;2.67;;;;;23.20;100384.00;;;;2063019;28;20222;-57
2021/08/09 01:33:20;;;;;;;4.17;2.70;;;;;23.20;100383.00;;;;2070941;28;20217;-56
2021/08/09 01:34:20;;;;;;;3.00;2.30;;;;;23.10;100381.00;;;;2070785;28;20218;-56
2021/08/09 01:35:22;;;;;;;6.03;2.57;;;;;23.10;100385.00;;;;2062691;28;20257;-57
2021/08/09 01:36:23;;;;;;;3.45;2.20;;;;;23.20;100385.00;;;;2067849;28;20210;-55
2021/08/09 01:37:23;;;;;;;4.40;2.33;;;;;23.10;100387.00;;;;2067693;28;20210;-56
2021/08/09 01:38:25;;;;;;;3.50;2.60;;;;;23.20;100388.00;;;;2062699;28;20222;-56
2021/08/09 01:39:25;;;;;;;3.50;2.20;;;;;23.10;100389.00;;;;2071034;28;20317;-56
2021/08/09 01:40:25;;;;;;;5.80;2.60;;;;;23.10;100386.00;;;;2070275;28;20245;-57
2021/08/09 01:41:26;;;;;;;3.10;2.37;;;;;23.20;100387.00;;;;2070930;28;20639;-55
2021/08/09 01:42:26;;;;;;;4.57;2.00;;;;;23.20;100387.00;;;;2071588;28;20218;-55
2021/08/09 01:43:26;;;;;;;2.63;1.90;;;;;23.20;100385.00;;;;2067457;28;20285;-54
2021/08/09 01:44:35;;;;;;;2.37;1.90;;;;;23.20;100386.00;;;;2054363;28;20335;-55
2021/08/09 01:45:36;;;;;;;2.20;2.00;;;;;23.20;100386.00;;;;2053776;28;20274;-56
2021/08/09 01:46:36;;;;;;;2.67;2.07;;;;;23.20;100389.00;;;;2051180;28;20306;-55
2021/08/09 01:47:38;;;;;;;3.13;2.30;;;;;23.20;100383.00;;;;2055117;28;20303;-55
2021/08/09 01:48:39;;;;;;;2.67;1.92;;;;;23.20;100388.00;;;;2055554;28;20223;-55
2021/08/09 01:49:40;;;;;;;3.33;2.28;;;;;23.20;100392.00;;;;2062349;28;20218;-56
2021/08/09 01:50:40;;;;;;;2.60;1.97;;;;;23.20;100401.00;;;;2075116;28;20742;-55
2021/08/09 01:51:41;;;;;;;3.13;2.27;;;;;23.20;100400.00;;;;2087927;28;20241;-56
2021/08/09 01:52:42;;;;;;;2.67;1.90;;;;;23.20;100401.00;;;;2063175;28;20349;-56
2021/08/09 01:53:42;;;;;;;2.90;2.60;;;;;23.20;100404.00;;;;2063348;28;20203;-56
2021/08/09 01:54:42;;;;;;;2.30;2.10;;;;;23.20;100398.00;;;;2063972;28;20215;-56
2021/08/09 01:55:43;;;;;;;3.23;2.63;;;;;23.20;100406.00;;;;2070180;28;20218;-55
2021/08/09 01:56:43;;;;;;;2.90;2.20;;;;;23.20;100405.00;;;;2063061;28;20211;-56
2021/08/09 01:57:43;;;;;;;2.87;2.40;;;;;23.20;100411.00;;;;2071382;28;20567;-56
2021/08/09 01:58:44;;;;;;;4.40;2.60;;;;;23.20;100400.00;;;;2081162;28;20212;-56
2021/08/09 01:59:44;;;;;;;2.17;1.97;;;;;23.20;100395.00;;;;2056074;28;20814;-56
2021/08/09 02:00:44;;;;;;;2.30;1.80;;;;;23.20;100400.00;;;;2054571;28;20222;-55
2021/08/09 02:01:45;;;;;;;2.40;2.20;;;;;23.20;100404.00;;;;2062319;28;20670;-54
2021/08/09 02:02:45;;;;;;;2.17;1.97;;;;;23.20;100401.00;;;;2056630;28;20223;-55
2021/08/09 02:03:46;;;;;;;2.43;1.87;;;;;23.20;100415.00;;;;2055865;28;20271;-56
2021/08/09 02:04:46;;;;;;;1.70;1.60;;;;;23.20;100413.00;;;;2055851;28;20776;-56
2021/08/09 02:05:46;;;;;;;2.50;2.30;;;;;23.20;100414.00;;;;2064995;28;20349;-56
2021/08/09 02:06:47;;;;;;;2.90;2.37;;;;;23.20;100398.00;;;;2066623;28;20694;-56
2021/08/09 02:07:48;;;;;;;2.97;2.07;;;;;23.20;100408.00;;;;2064498;28;20588;-57
2021/08/09 02:08:48;;;;;;;2.90;1.93;;;;;23.20;100405.00;;;;2068155;28;20207;-56
2021/08/09 02:09:48;;;;;;;2.90;2.03;;;;;23.20;100409.00;;;;2067534;28;20739;-56
2021/08/09 02:10:53;;;;;;;2.30;2.00;;;;;23.20;100408.00;;;;2063890;28;20306;-56
2021/08/09 02:12:02;;;;;;;3.20;2.00;;;;;23.20;100407.00;;;;2070513;28;20218;-58
2021/08/09 02:13:26;;;;;;;3.70;2.25;;;;;23.20;100413.00;;;;2062605;28;20203;-56
2021/08/09 02:14:27;;;;;;;2.90;2.00;;;;;23.20;100410.00;;;;2054179;28;20935;-56
2021/08/09 02:15:35;;;;;;;2.37;1.77;;;;;23.20;100405.00;;;;2047362;28;20224;-56
2021/08/09 02:16:43;;;;;;;2.38;1.85;;;;;23.20;100407.00;;;;2056492;28;21003;-56
2021/08/09 02:17:48;;;;;;;2.03;1.80;;;;;23.20;100397.00;;;;2062161;28;20592;-56
2021/08/09 02:18:59;;;;;;;2.25;1.65;;;;;23.30;100405.00;;;;2063789;28;20210;-55
2021/08/09 02:20:02;;;;;;;2.58;1.98;;;;;23.20;100403.00;;;;2066580;28;20299;-57
2021/08/09 02:21:05;;;;;;;2.50;2.00;;;;;23.30;100402.00;;;;2066754;28;20645;-56
2021/08/09 02:22:09;;;;;;;2.53;2.30;;;;;23.30;100403.00;;;;2064631;28;20734;-54
2021/08/09 02:23:12;;;;;;;2.28;1.90;;;;;23.20;100397.00;;;;2071121;28;20364;-55
2021/08/09 02:24:23;;;;;;;2.65;1.95;;;;;23.20;100407.00;;;;2071105;28;20218;-56
2021/08/09 02:25:26;;;;;;;2.03;1.80;;;;;23.20;100397.00;;;;2071085;28;20292;-56
2021/08/09 02:26:28;;;;;;;3.28;1.90;;;;;23.20;100402.00;;;;2066764;28;20286;-54
2021/08/09 02:27:49;;;;;;;3.47;1.80;;;;;23.20;100405.00;;;;2067601;28;20221;-57
2021/08/09 02:28:50;;;;;;;2.17;1.98;;;;;23.20;100397.00;;;;2064203;28;20238;-54
2021/08/09 02:29:51;;;;;;;2.60;1.73;;;;;23.10;100402.00;;;;2070445;28;20217;-56
2021/08/09 02:30:53;;;;;;;3.27;2.17;;;;;23.20;100393.00;;;;2070457;28;20668;-56
2021/08/09 02:31:54;;;;;;;3.10;2.00;;;;;23.20;100385.00;;;;2071005;28;20309;-54
2021/08/09 02:32:54;;;;;;;3.10;1.90;;;;;23.20;100388.00;;;;2071014;28;20226;-54
2021/08/09 02:33:55;;;;;;;3.53;1.53;;;;;23.20;100388.00;;;;2071201;28;20224;-56
2021/08/09 02:34:56;;;;;;;4.43;2.03;;;;;23.20;100382.00;;;;2061646;28;20450;-57
2021/08/09 02:35:56;;;;;;;2.45;1.50;;;;;23.20;100391.00;;;;2046608;28;20220;-58
2021/08/09 02:36:57;;;;;;;3.03;1.80;;;;;23.20;100390.00;;;;2071027;28;20210;-57
2021/08/09 02:37:57;;;;;;;2.07;1.87;;;;;23.20;100381.00;;;;2071088;28;20301;-57
2021/08/09 02:38:58;;;;;;;2.10;1.90;;;;;23.20;100384.00;;;;2055616;28;20220;-56
2021/08/09 02:39:58;;;;;;;2.50;1.60;;;;;23.20;100380.00;;;;2054993;28;20230;-56
2021/08/09 02:41:00;;;;;;;2.50;1.60;;;;;23.20;100390.00;;;;2062250;28;20218;-54
2021/08/09 02:42:00;;;;;;;3.08;1.85;;;;;23.20;100387.00;;;;2063026;28;20223;-56
2021/08/09 02:43:00;;;;;;;1.87;1.70;;;;;23.20;100387.00;;;;2054901;28;20237;-56
2021/08/09 02:44:01;;;;;;;1.73;1.40;;;;;23.20;100392.00;;;;2055072;28;20740;-56
2021/08/09 02:45:01;;;;;;;2.40;1.50;;;;;23.20;100383.00;;;;2063724;28;20338;-55
2021/08/09 02:46:02;;;;;;;3.27;1.80;;;;;23.20;100384.00;;;;2059161;28;20577;-57
2021/08/09 02:47:03;;;;;;;1.90;1.58;;;;;23.20;100387.00;;;;2059058;28;20222;-54
2021/08/09 02:48:03;;;;;;;3.03;1.97;;;;;23.20;100383.00;;;;2059498;28;20215;-56
2021/08/09 02:49:04;;;;;;;1.97;1.70;;;;;23.20;100376.00;;;;2062834;28;20211;-56
2021/08/09 02:50:05;;;;;;;2.33;1.73;;;;;23.20;100381.00;;;;2079748;28;20304;-55
2021/08/09 02:51:06;;;;;;;2.38;1.80;;;;;23.20;100382.00;;;;2078225;28;20577;-56
2021/08/09 02:52:06;;;;;;;3.23;1.60;;;;;23.20;100388.00;;;;2070794;28;20210;-57
2021/08/09 02:53:07;;;;;;;2.00;1.80;;;;;23.20;100387.00;;;;2070845;28;20225;-56
2021/08/09 02:54:07;;;;;;;2.03;1.50;;;;;23.20;100386.00;;;;2065816;28;20211;-55
2021/08/09 02:55:08;;;;;;;1.97;1.70;;;;;23.20;100386.00;;;;2067878;28;20386;-55
2021/08/09 02:56:08;;;;;;;3.00;1.60;;;;;23.20;100383.00;;;;2070845;28;20202;-56
2021/08/09 02:57:09;;;;;;;2.33;2.10;;;;;23.20;100386.00;;;;2070907;28;20214;-56
2021/08/09 02:58:09;;;;;;;2.80;1.83;;;;;23.20;100385.00;;;;2070682;28;20719;-54
2021/08/09 02:59:09;;;;;;;3.27;1.70;;;;;23.20;100377.00;;;;2062644;28;20657;-55
2021/08/09 03:00:10;;;;;;;2.43;1.80;;;;;23.20;100385.00;;;;2074897;28;20224;-57
2021/08/09 03:01:10;;;;;;;3.93;2.00;;;;;23.20;100385.00;;;;2079515;28;20213;-55
2021/08/09 03:02:12;;;;;;;2.23;1.77;;;;;23.20;100383.00;;;;2070854;28;20218;-55
2021/08/09 03:03:12;;;;;;;1.85;1.70;;;;;23.20;100380.00;;;;2064493;28;20301;-57
2021/08/09 03:04:14;;;;;;;1.83;1.53;;;;;23.20;100382.00;;;;2065176;28;20223;-57
2021/08/09 03:05:15;;;;;;;1.90;1.70;;;;;23.20;100385.00;;;;2068628;28;20579;-56
2021/08/09 03:06:15;;;;;;;3.73;1.70;;;;;23.20;100389.00;;;;2062639;28;20223;-56
2021/08/09 03:07:15;;;;;;;2.40;1.80;;;;;23.20;100385.00;;;;2062683;28;20916;-55
2021/08/09 03:08:16;;;;;;;1.83;1.73;;;;;23.20;100385.00;;;;2062599;28;20288;-56
2021/08/09 03:09:16;;;;;;;1.90;1.60;;;;;23.10;100384.00;;;;2060621;28;20816;-56
2021/08/09 03:10:17;;;;;;;4.10;1.90;;;;;23.10;100384.00;;;;2064468;28;20218;-55
2021/08/09 03:11:17;;;;;;;4.00;1.90;;;;;23.10;100382.00;;;;2066222;28;20225;-55
2021/08/09 03:12:18;;;;;;;2.70;1.87;;;;;23.10;100380.00;;;;2054422;28;20334;-56
2021/08/09 03:13:22;;;;;;;2.20;1.40;;;;;23.20;100378.00;;;;2057423;28;20955;-57
2021/08/09 03:14:23;;;;;;;2.85;1.90;;;;;23.20;100382.00;;;;2066093;28;20249;-56
2021/08/09 03:15:25;;;;;;;1.80;1.45;;;;;23.20;100384.00;;;;2064083;28;20370;-55
2021/08/09 03:16:25;;;;;;;2.00;1.70;;;;;23.10;100377.00;;;;2056442;28;20225;-56
2021/08/09 03:17:25;;;;;;;2.33;1.70;;;;;23.20;100387.00;;;;2057705;28;20601;-56
2021/08/09 03:18:33;;;;;;;2.03;1.77;;;;;23.20;100384.00;;;;2062847;28;20230;-55
2021/08/09 03:19:33;;;;;;;1.80;1.45;;;;;23.20;100384.00;;;;2063873;28;20230;-56
2021/08/09 03:20:33;;;;;;;1.90;1.40;;;;;23.10;100390.00;;;;2063126;28;20684;-57
2021/08/09 03:21:34;;;;;;;1.80;1.60;;;;;23.10;100396.00;;;;2067185;28;20214;-57
2021/08/09 03:22:34;;;;;;;1.73;1.40;;;;;23.10;100401.00;;;;2063260;28;20217;-56
2021/08/09 03:23:35;;;;;;;1.63;1.50;;;;;23.10;100397.00;;;;2067173;28;20221;-55
2021/08/09 03:24:35;;;;;;;2.13;1.70;;;;;23.10;100401.00;;;;2067416;28;20214;-57
2021/08/09 03:25:38;;;;;;;2.53;1.60;;;;;23.10;100398.00;;;;2063193;28;20219;-57
2021/08/09 03:26:39;;;;;;;1.90;1.48;;;;;23.10;100400.00;;;;2066678;28;20203;-56
2021/08/09 03:27:39;;;;;;;1.97;1.57;;;;;23.10;100397.00;;;;2067315;28;20210;-57
2021/08/09 03:28:39;;;;;;;2.33;1.70;;;;;23.10;100399.00;;;;2057109;28;20216;-56
2021/08/09 03:29:40;;;;;;;2.60;1.10;;;;;23.10;100395.00;;;;2059259;28;20571;-55
2021/08/09 03:30:40;;;;;;;1.80;1.60;;;;;23.10;100392.00;;;;2062542;28;20207;-55
2021/08/09 03:31:40;;;;;;;1.93;1.70;;;;;23.10;100401.00;;;;2066458;28;20567;-56
2021/08/09 03:32:41;;;;;;;1.60;1.50;;;;;23.10;100402.00;;;;2065051;28;20218;-56
2021/08/09 03:33:41;;;;;;;2.80;1.70;;;;;23.10;100404.00;;;;2064122;28;20661;-55
2021/08/09 03:34:41;;;;;;;2.23;1.80;;;;;23.10;100404.00;;;;2066276;28;20249;-57
2021/08/09 03:35:42;;;;;;;2.93;1.20;;;;;23.10;100402.00;;;;2067054;28;20218;-57
2021/08/09 03:36:45;;;;;;;2.50;1.60;;;;;23.10;100409.00;;;;2056814;28;20289;-57
2021/08/09 03:37:46;;;;;;;1.77;1.58;;;;;23.10;100409.00;;;;2059124;28;20210;-55
2021/08/09 03:38:46;;;;;;;2.07;1.37;;;;;23.10;100410.00;;;;2055152;28;20211;-57
2021/08/09 03:39:46;;;;;;;1.83;1.20;;;;;23.10;100407.00;;;;2057727;28;20218;-56
2021/08/09 03:40:47;;;;;;;2.07;1.50;;;;;23.10;100414.00;;;;2054825;28;20700;-56
2021/08/09 03:41:47;;;;;;;2.53;1.53;;;;;23.10;100409.00;;;;2060981;28;20207;-54
2021/08/09 03:42:47;;;;;;;1.60;1.50;;;;;23.10;100404.00;;;;2064465;28;20211;-56
2021/08/09 03:43:48;;;;;;;2.37;1.63;;;;;23.10;100404.00;;;;2066215;28;20238;-57
2021/08/09 03:44:48;;;;;;;1.90;1.70;;;;;23.10;100405.00;;;;2065266;28;20273;-57
2021/08/09 03:45:49;;;;;;;1.70;1.40;;;;;23.10;100411.00;;;;2066471;28;20269;-56
2021/08/09 03:46:49;;;;;;;1.83;1.70;;;;;23.10;100408.00;;;;2062777;28;20211;-55
2021/08/09 03:47:49;;;;;;;1.97;1.60;;;;;23.10;100405.00;;;;2063054;28;20207;-56
2021/08/09 03:48:50;;;;;;;1.83;1.50;;;;;23.10;100410.00;;;;2064696;28;20207;-57
2021/08/09 03:49:50;;;;;;;2.00;1.60;;;;;23.10;100402.00;;;;2070968;28;20298;-56
2021/08/09 03:50:50;;;;;;;2.20;1.57;;;;;23.10;100408.00;;;;2070619;28;20220;-55
2021/08/09 03:51:51;;;;;;;1.63;1.50;;;;;23.10;100408.00;;;;2070783;28;20647;-55
2021/08/09 03:52:53;;;;;;;1.77;1.47;;;;;23.10;100410.00;;;;2070874;28;20218;-54
2021/08/09 03:53:53;;;;;;;2.28;1.80;;;;;23.10;100408.00;;;;2070984;28;20210;-55
2021/08/09 03:54:53;;;;;;;2.50;1.37;;;;;23.10;100407.00;;;;2070960;28;20560;-57
2021/08/09 03:55:54;;;;;;;1.70;1.53;;;;;23.10;100407.00;;;;2070988;28;20206;-56
2021/08/09 03:56:54;;;;;;;1.80;1.30;;;;;23.10;100405.00;;;;2070827;28;20297;-57
2021/08/09 03:57:55;;;;;;;2.13;1.60;;;;;23.10;100404.00;;;;2070703;28;20302;-55
2021/08/09 03:58:55;;;;;;;1.80;1.20;;;;;23.10;100397.00;;;;2070794;28;20222;-56
2021/08/09 03:59:55;;;;;;;2.47;1.80;;;;;23.10;100404.00;;;;2070022;28;20218;-56
2021/08/09 04:00:56;;;;;;;2.00;1.70;;;;;23.10;100399.00;;;;2070648;28;20206;-56
2021/08/09 04:01:56;;;;;;;1.63;1.23;;;;;23.10;100397.00;;;;2070810;28;20320;-56
2021/08/09 04:02:56;;;;;;;1.80;1.43;;;;;23.10;100392.00;;;;2070537;28;20218;-57
2021/08/09 04:03:57;;;;;;;2.70;1.67;;;;;23.10;100398.00;;;;2070794;28;20214;-55
2021/08/09 04:04:58;;;;;;;2.80;1.80;;;;;23.10;100399.00;;;;2064111;28;20207;-55
2021/08/09 04:05:58;;;;;;;2.45;1.70;;;;;23.10;100391.00;;;;2062889;28;20318;-57
2021/08/09 04:06:59;;;;;;;1.60;1.43;;;;;23.10;100397.00;;;;2062607;28;20215;-56
2021/08/09 04:07:59;;;;;;;2.27;1.50;;;;;23.10;100397.00;;;;2062457;28;20214;-56
2021/08/09 04:09:00;;;;;;;1.97;1.50;;;;;23.10;100397.00;;;;2062861;28;20579;-55
2021/08/09 04:10:00;;;;;;;1.53;1.33;;;;;23.10;100400.00;;;;2062765;28;20211;-55
2021/08/09 04:11:01;;;;;;;1.93;1.50;;;;;23.10;100406.00;;;;2062292;28;20233;-57
2021/08/09 04:12:01;;;;;;;2.33;1.93;;;;;23.10;100401.00;;;;2062434;28;20217;-57
2021/08/09 04:13:01;;;;;;;1.83;1.50;;;;;23.10;100404.00;;;;2063165;28;20249;-56
2021/08/09 04:14:03;;;;;;;1.87;1.40;;;;;23.10;100410.00;;;;2062858;28;20222;-56
2021/08/09 04:15:06;;;;;;;1.85;1.40;;;;;23.10;100407.00;;;;2063299;28;20215;-56
2021/08/09 04:16:06;;;;;;;2.20;1.52;;;;;23.10;100407.00;;;;2065264;28;20215;-56
2021/08/09 04:17:06;;;;;;;1.63;1.30;;;;;23.10;100409.00;;;;2062674;28;20699;-54
2021/08/09 04:18:07;;;;;;;1.70;1.60;;;;;23.10;100409.00;;;;2062901;28;20692;-57
2021/08/09 04:19:07;;;;;;;3.10;1.60;;;;;23.10;100405.00;;;;2065745;28;20567;-56
2021/08/09 04:20:08;;;;;;;2.10;1.50;;;;;23.10;100408.00;;;;2070429;28;20206;-56
2021/08/09 04:21:08;;;;;;;2.33;1.67;;;;;23.10;100410.00;;;;2070528;28;20213;-54
2021/08/09 04:22:09;;;;;;;2.53;1.70;;;;;22.90;100409.00;;;;2068266;28;20221;-55
2021/08/09 04:23:09;;;;;;;2.73;1.50;;;;;23.10;100411.00;;;;2070631;28;20226;-57
2021/08/09 04:24:09;;;;;;;1.77;1.40;;;;;23.10;100403.00;;;;2070826;28;20210;-55
2021/08/09 04:25:10;;;;;;;2.03;1.53;;;;;23.10;100403.00;;;;2067846;28;20679;-56
2021/08/09 04:26:10;;;;;;;2.10;1.70;;;;;23.10;100403.00;;;;2062627;28;20297;-56
2021/08/09 04:27:11;;;;;;;2.97;1.47;;;;;23.10;100407.00;;;;2062606;28;20222;-55
2021/08/09 04:28:11;;;;;;;2.10;1.50;;;;;23.10;100408.00;;;;2062700;28;20698;-54
2021/08/09 04:29:11;;;;;;;2.50;1.40;;;;;23.00;100413.00;;;;2062599;28;20290;-57
2021/08/09 04:30:12;;;;;;;1.67;1.50;;;;;23.00;100408.00;;;;2062431;28;20214;-57
2021/08/09 04:31:12;;;;;;;2.20;1.60;;;;;23.10;100402.00;;;;2062567;28;20217;-56
2021/08/09 04:32:14;;;;;;;2.30;1.70;;;;;23.00;100401.00;;;;2062447;28;20221;-55
2021/08/09 04:33:14;;;;;;;1.52;1.42;;;;;23.00;100399.00;;;;2062157;28;20320;-56
2021/08/09 04:34:15;;;;;;;1.60;1.33;;;;;23.00;100403.00;;;;2062666;28;20219;-57
2021/08/09 04:35:15;;;;;;;4.00;1.57;;;;;23.10;100398.00;;;;2062432;28;20222;-57
2021/08/09 04:36:16;;;;;;;2.27;1.53;;;;;23.10;100400.00;;;;2062537;28;20219;-56
2021/08/09 04:37:17;;;;;;;1.83;1.30;;;;;23.10;100394.00;;;;2062515;28;20218;-55
2021/08/09 04:38:17;;;;;;;1.40;1.30;;;;;23.10;100403.00;;;;2062683;28;20786;-55
2021/08/09 04:39:17;;;;;;;4.40;1.80;;;;;23.00;100404.00;;;;2062595;28;20450;-56
2021/08/09 04:40:18;;;;;;;1.53;1.33;;;;;23.00;100407.00;;;;2069458;28;20599;-57
2021/08/09 04:41:18;;;;;;;1.83;1.47;;;;;23.00;100409.00;;;;2070561;28;20229;-57
2021/08/09 04:42:18;;;;;;;1.90;1.13;;;;;23.10;100408.00;;;;2070598;28;20309;-56
2021/08/09 04:43:19;;;;;;;1.77;1.63;;;;;23.00;100399.00;;;;2069076;28;20238;-56
2021/08/09 04:44:19;;;;;;;2.10;1.60;;;;;23.00;100402.00;;;;2065259;28;20218;-56
2021/08/09 04:45:19;;;;;;;2.40;1.60;;;;;23.10;100399.00;;;;2065259;28;20337;-55
2021/08/09 04:46:20;;;;;;;2.37;1.77;;;;;23.00;100402.00;;;;2064489;28;20222;-56
2021/08/09 04:47:20;;;;;;;1.50;1.30;;;;;23.00;100393.00;;;;2072466;28;20224;-56
2021/08/09 04:48:20;;;;;;;1.77;1.47;;;;;23.10;100388.00;;;;2073203;28;20679;-56
2021/08/09 04:49:21;;;;;;;2.97;1.40;;;;;23.10;100397.00;;;;2073347;28;20214;-57
2021/08/09 04:50:21;;;;;;;1.40;1.27;;;;;23.10;100408.00;;;;2072848;28;20701;-55
2021/08/09 04:51:21;;;;;;;1.60;1.13;;;;;23.10;100400.00;;;;2071361;28;20218;-55
2021/08/09 04:52:22;;;;;;;2.63;1.53;;;;;23.10;100409.00;;;;2071066;28;20209;-56
2021/08/09 04:53:22;;;;;;;2.30;1.37;;;;;23.00;100405.00;;;;2064115;28;20819;-57
2021/08/09 04:54:23;;;;;;;1.70;1.37;;;;;23.00;100403.00;;;;2065097;28;20896;-56
2021/08/09 04:55:23;;;;;;;2.03;1.47;;;;;23.00;100403.00;;;;2064473;28;20297;-56
2021/08/09 04:56:23;;;;;;;1.40;1.30;;;;;23.00;100409.00;;;;2064222;28;20898;-55
2021/08/09 04:57:24;;;;;;;1.60;1.33;;;;;23.00;100400.00;;;;2069460;28;20230;-55
2021/08/09 04:58:24;;;;;;;1.70;1.33;;;;;23.00;100407.00;;;;2072724;28;20218;-55
2021/08/09 04:59:24;;;;;;;2.20;1.47;;;;;23.00;100407.00;;;;2072703;28;20325;-55
2021/08/09 05:00:25;;;;;;;2.30;1.77;;;;;23.10;100405.00;;;;2069973;28;20309;-57
2021/08/09 05:01:25;;;;;;;2.57;1.63;;;;;23.10;100407.00;;;;2079700;28;20217;-56
2021/08/09 05:02:25;;;;;;;1.80;1.53;;;;;23.10;100412.00;;;;2079925;28;20221;-57
2021/08/09 05:03:26;;;;;;;2.00;1.37;;;;;23.10;100411.00;;;;2064314;28;20233;-56
2021/08/09 05:04:26;;;;;;;2.00;1.57;;;;;23.10;100414.00;;;;2063996;28;20610;-57
2021/08/09 05:05:26;;;;;;;1.83;1.43;;;;;23.10;100414.00;;;;2067819;28;20662;-57